Chagrin Falls, OH (44022)

10:03 AM EDT on April 25, 2017 (GMT -0400)
Bell Street Pepper Patch | | Change Station

Elev 1010 ft 41.43 °N, 81.38 °W | Updated 9 seconds ago

Rain
Rain
55.0 °F
Feels Like 55.0 °F
N
1.6
Wind Variable Wind from NW
Gusts 6.9 mph

Today
High -- | Low -- °F
--% Chance of Precip.
Yesterday
High -- | Low -- °F
Precip. -- in
Pressure 29.91 in
Visibility 10.0 miles
Clouds Mostly Cloudy 5000 ft
Overcast 6500 ft
Dew Point 49 °F
Humidity 79%
Rainfall 0.02 in
Snow Depth Not available.
6:30 AM 8:17 PM
Waning Crescent, 1% visible
METAR KCGF 251345Z 14010G19KT 10SM BKN050 OVC065 13/10 A2991
Pressure 29.91 in
Visibility 10.0 miles
Clouds Mostly Cloudy 5000 ft
Overcast 6500 ft
Dew Point 49 °F
Humidity 79%
Rainfall 0.02 in
Snow Depth Not available.
6:30 AM 8:17 PM
Waning Crescent, 1% visible
METAR KCGF 251345Z 14010G19KT 10SM BKN050 OVC065 13/10 A2991

Get Severe Weather Alerts

Thanks for signing up!

Be on the lookout for a verification email in your inbox.

You'll start receiving the daily forecast at 8 AM.

×

10-Day Weather Forecast

Almanac

Astronomy

Apr. 25, 2017 Rise Set
Actual Time
Civil Twilight
Nautical Twilight
Astronomical Twilight
Moon
Length of Visible Light
Length of Day
Tomorrow will be .
, % of the Moon is Illuminated

Today's Extremes

State Highs State Lows

Community

WunderPhotos

WunderBlog® & News

Nearby

Air Quality

  Air Quality AQ Index Pollutant
Not available.

Snow Depth

Station Depth Elevation

Earthquake Activity

City Distance Mag. Time & Date
Minimum magnitude displayed is 2.5.

Coastal Water Temperatures

Place Temperature

Stations

Nearby Weather Stations

Station Location Temp. Windchill Dew Point Humidity Wind Precip. Elev Updated Type
                   

Watches & Warnings

There are currently no watches in effect.